Coober Pedy, Australia

8:29 AM ACDT on December 10, 2016 (GMT +1030)
Coober Pedy | | Change Station

Elev 738 ft 29.04 °S, 134.72 °E | Updated 59 minutes ago

Clear
Clear
66 °F
Feels Like 66 °F
N
14
Wind Variable Wind from East

Today
High -- | Low -- °F
--% Chance of Precip.
Yesterday
High -- | Low -- °F
Precip. -- in
Pressure 30.12 in
Visibility 6.2 miles
Clouds
Dew Point 37 °F
Humidity 35%
Rainfall 0.00 in
Snow Depth Not available.
6:25 AM 8:22 PM
Waxing Gibbous, 77% visible
METAR YCBP 092100Z AUTO 10012KT 9999 NCD 19/03 Q1020 PRESENT WEATHER SENSOR US
Pressure 30.12 in
Visibility 6.2 miles
Clouds
Dew Point 37 °F
Humidity 35%
Rainfall 0.00 in
Snow Depth Not available.
6:25 AM 8:22 PM
Waxing Gibbous, 77% visible
METAR YCBP 092100Z AUTO 10012KT 9999 NCD 19/03 Q1020 PRESENT WEATHER SENSOR US

10-Day Weather Forecast

×

Almanac

Astronomy

Dec. 10, 2016 Rise Set
Actual Time
Civil Twilight
Nautical Twilight
Astronomical Twilight
Moon
Length of Visible Light
Length of Day
Tomorrow will be .
, % of the Moon is Illuminated

Today's Extremes

Country Highs Country Lows

Community

WunderPhotos

Upload Photos

1,956,535 photos uploaded!

WunderBlog® & News

Nearby

Air Quality

  Air Quality AQ Index Pollutant
Not available.

Snow Depth

Station Depth Elevation

Earthquake Activity

City Distance Mag. Time & Date
Minimum magnitude displayed is 2.5.

Coastal Water Temperatures

Place Temperature

Stations

Nearby Weather Stations

Station Location Temp. Windchill Dew Point Humidity Wind Precip. Elev Updated Type